createdAt,value
2023-05-10T00:02:19.422Z,14.25
2023-05-10T00:04:46.328Z,14.25
2023-05-10T00:07:13.235Z,14.25
2023-05-10T00:09:40.415Z,14.24
2023-05-10T00:12:07.530Z,14.25
2023-05-10T00:14:34.388Z,14.30
2023-05-10T00:17:02.126Z,14.37
2023-05-10T00:19:29.049Z,14.40
2023-05-10T00:21:56.349Z,14.43
2023-05-10T00:24:23.093Z,14.46
2023-05-10T00:26:49.824Z,14.47
2023-05-10T00:29:16.515Z,14.47
2023-05-10T00:31:43.306Z,14.46
2023-05-10T00:34:10.609Z,14.41
2023-05-10T00:36:37.636Z,14.34
2023-05-10T00:39:04.775Z,14.27
2023-05-10T00:41:33.094Z,14.22
2023-05-10T00:44:01.360Z,14.19
2023-05-10T00:46:28.532Z,14.15
2023-05-10T00:48:55.354Z,14.14
2023-05-10T00:51:22.112Z,14.12
2023-05-10T00:53:48.972Z,14.13
2023-05-10T00:56:16.349Z,14.16
2023-05-10T00:58:43.013Z,14.19
2023-05-10T01:01:10.125Z,14.24
2023-05-10T01:03:37.199Z,14.29
2023-05-10T01:06:04.677Z,14.29
2023-05-10T01:08:32.493Z,14.29
2023-05-10T01:10:59.264Z,14.31
2023-05-10T01:13:33.091Z,14.34
2023-05-10T01:16:02.360Z,14.40
2023-05-10T01:18:30.463Z,14.44
2023-05-10T01:21:17.113Z,14.46
2023-05-10T01:24:13.500Z,14.49
2023-05-10T01:27:08.247Z,14.45
2023-05-10T01:30:13.569Z,14.37
2023-05-10T01:33:01.774Z,14.33
2023-05-10T01:35:54.823Z,14.32
2023-05-10T01:38:51.091Z,14.31
2023-05-10T01:41:41.966Z,14.29
2023-05-10T01:44:08.781Z,14.23
2023-05-10T01:46:40.054Z,14.17
2023-05-10T01:49:14.463Z,14.14
2023-05-10T01:51:45.483Z,14.19
2023-05-10T01:54:12.576Z,14.30
2023-05-10T01:56:39.196Z,14.44
2023-05-10T01:59:13.788Z,14.56
2023-05-10T02:01:40.889Z,14.65
2023-05-10T02:04:08.404Z,14.68
2023-05-10T02:06:36.450Z,14.72
2023-05-10T02:09:03.126Z,14.73
2023-05-10T02:11:30.845Z,14.73
2023-05-10T02:13:57.961Z,14.79
2023-05-10T02:16:28.381Z,14.85
2023-05-10T02:18:55.351Z,14.86
2023-05-10T02:21:21.998Z,14.89
2023-05-10T02:23:49.272Z,14.85
2023-05-10T02:26:16.146Z,14.77
2023-05-10T02:28:43.566Z,14.71
2023-05-10T02:31:11.027Z,14.65
2023-05-10T02:33:41.767Z,14.64
2023-05-10T02:36:09.221Z,14.63
2023-05-10T02:38:37.285Z,14.64
2023-05-10T02:41:04.598Z,14.63
2023-05-10T02:43:32.751Z,14.63
2023-05-10T02:45:59.612Z,14.63
2023-05-10T02:48:26.719Z,14.65
2023-05-10T02:50:53.494Z,14.70
2023-05-10T02:53:23.404Z,14.71
2023-05-10T02:55:52.440Z,14.73
2023-05-10T02:58:22.807Z,14.76
2023-05-10T03:00:49.982Z,14.81
2023-05-10T03:03:17.471Z,14.86
2023-05-10T03:05:44.330Z,14.91
2023-05-10T03:08:11.100Z,14.96
2023-05-10T03:10:42.364Z,15.03
2023-05-10T03:13:38.656Z,15.12
2023-05-10T03:16:09.470Z,15.23
2023-05-10T03:18:44.072Z,15.30
2023-05-10T03:21:12.902Z,15.37
2023-05-10T03:24:00.671Z,15.41
2023-05-10T03:26:28.563Z,15.48
2023-05-10T03:29:02.690Z,15.57
2023-05-10T03:31:29.855Z,15.68
2023-05-10T03:33:56.606Z,15.82
2023-05-10T03:36:25.450Z,15.97
2023-05-10T03:38:52.512Z,16.18
2023-05-10T03:41:19.180Z,16.47
2023-05-10T03:43:45.809Z,16.81
2023-05-10T03:46:13.195Z,17.13
2023-05-10T03:48:40.164Z,17.35
2023-05-10T03:51:08.410Z,17.46
2023-05-10T03:53:36.020Z,17.54
2023-05-10T03:56:04.092Z,17.59
2023-05-10T03:58:30.849Z,17.65
2023-05-10T04:00:58.778Z,17.65
2023-05-10T04:03:26.874Z,17.66
2023-05-10T04:06:01.547Z,17.67
2023-05-10T04:08:28.935Z,17.68
2023-05-10T04:10:55.564Z,17.68
2023-05-10T04:13:31.368Z,17.68
2023-05-10T04:15:58.855Z,17.69
2023-05-10T04:18:25.889Z,17.68
2023-05-10T04:20:52.590Z,17.69
2023-05-10T04:23:19.552Z,17.72
2023-05-10T04:25:46.311Z,17.79
2023-05-10T04:28:13.142Z,17.85
2023-05-10T04:30:40.920Z,17.90
2023-05-10T04:33:07.897Z,17.95
2023-05-10T04:35:35.650Z,18.02
2023-05-10T04:38:02.316Z,18.08
2023-05-10T04:40:29.050Z,18.16
2023-05-10T04:42:55.970Z,18.27
2023-05-10T04:45:22.736Z,18.38
2023-05-10T04:47:49.516Z,18.46
2023-05-10T04:57:58.358Z,18.55
2023-05-10T05:00:25.785Z,18.56
2023-05-10T05:02:52.785Z,18.79
2023-05-10T05:05:19.835Z,19.16
2023-05-10T05:07:46.909Z,19.70
2023-05-10T05:10:13.819Z,20.41
2023-05-10T05:12:40.630Z,21.22
2023-05-10T05:15:10.361Z,22.08
2023-05-10T05:17:37.394Z,22.95
2023-05-10T05:20:04.919Z,23.77
2023-05-10T05:22:31.819Z,24.58
2023-05-10T05:24:59.345Z,25.50
2023-05-10T05:27:27.602Z,26.41
2023-05-10T05:29:55.316Z,27.24
2023-05-10T05:32:22.834Z,28.01
2023-05-10T05:34:49.750Z,28.73
2023-05-10T05:37:17.360Z,29.42
2023-05-10T05:39:44.395Z,29.99
2023-05-10T05:42:12.465Z,30.31
2023-05-10T05:44:39.413Z,30.66
2023-05-10T05:47:06.778Z,31.03
2023-05-10T05:49:34.015Z,31.40
2023-05-10T05:52:02.106Z,31.66
2023-05-10T05:54:29.031Z,31.86
2023-05-10T05:56:57.668Z,31.96
2023-05-10T05:59:25.701Z,31.89
2023-05-10T06:01:52.654Z,31.98
2023-05-10T06:04:19.743Z,32.12
2023-05-10T06:06:46.622Z,32.35
2023-05-10T06:09:13.427Z,32.56
2023-05-10T06:11:40.241Z,32.72
2023-05-10T06:14:08.395Z,32.84
2023-05-10T06:16:35.616Z,32.76
2023-05-10T06:19:03.514Z,32.56
2023-05-10T06:21:31.132Z,32.54
2023-05-10T06:23:58.171Z,32.43
2023-05-10T06:26:25.023Z,31.90
2023-05-10T06:28:51.924Z,31.39
2023-05-10T06:31:18.905Z,31.05
2023-05-10T06:33:45.811Z,30.65
2023-05-10T06:36:12.757Z,30.27
2023-05-10T06:38:39.739Z,30.08
2023-05-10T06:41:06.659Z,29.97
2023-05-10T06:43:33.539Z,29.94
2023-05-10T06:46:00.500Z,30.06
2023-05-10T06:48:27.374Z,30.19
2023-05-10T06:50:54.167Z,30.27
2023-05-10T06:53:21.037Z,30.15
2023-05-10T06:55:47.834Z,29.90
2023-05-10T06:58:14.848Z,29.77
2023-05-10T07:00:44.676Z,29.71
2023-05-10T07:03:12.151Z,29.66
2023-05-10T07:05:39.457Z,29.52
2023-05-10T07:08:06.476Z,29.22
2023-05-10T07:10:33.989Z,28.86
2023-05-10T07:13:02.480Z,28.59
2023-05-10T07:15:29.839Z,28.43
2023-05-10T07:17:57.027Z,28.39
2023-05-10T07:20:24.120Z,28.17
2023-05-10T07:22:51.059Z,27.81
2023-05-10T07:25:17.993Z,27.52
2023-05-10T07:27:45.064Z,27.37
2023-05-10T07:30:12.892Z,27.38
2023-05-10T07:32:40.700Z,27.46
2023-05-10T07:35:08.382Z,27.57
2023-05-10T07:37:35.448Z,27.31
2023-05-10T07:40:02.250Z,27.23
2023-05-10T07:42:29.145Z,27.05
2023-05-10T07:44:56.063Z,26.85
2023-05-10T07:47:23.021Z,26.90
2023-05-10T07:49:50.048Z,26.95
2023-05-10T07:52:16.884Z,26.82
2023-05-10T07:54:43.676Z,26.92
2023-05-10T07:57:10.692Z,26.79
2023-05-10T07:59:37.960Z,26.32
2023-05-10T08:02:04.778Z,25.74
2023-05-10T08:04:31.601Z,25.42
2023-05-10T08:06:58.478Z,25.44
2023-05-10T08:09:25.608Z,25.41
2023-05-10T08:11:52.650Z,24.97
2023-05-10T08:14:19.475Z,24.31
2023-05-10T08:16:46.467Z,23.99
2023-05-10T08:19:13.420Z,23.56
2023-05-10T08:21:43.222Z,23.11
2023-05-10T08:24:10.069Z,22.87
2023-05-10T08:26:37.132Z,23.02
2023-05-10T08:29:04.046Z,23.15
2023-05-10T08:31:30.882Z,22.99
2023-05-10T08:33:57.924Z,22.77
2023-05-10T08:36:25.548Z,22.39
2023-05-10T08:38:55.746Z,22.19
2023-05-10T08:41:22.952Z,22.14
2023-05-10T08:43:54.084Z,22.22
2023-05-10T08:46:22.121Z,22.51
2023-05-10T08:48:50.296Z,22.90
2023-05-10T08:51:19.377Z,23.24
2023-05-10T08:53:46.802Z,23.54
2023-05-10T08:56:13.623Z,23.82
2023-05-10T08:58:40.490Z,23.84
2023-05-10T09:01:07.331Z,23.65
2023-05-10T09:03:34.210Z,23.61
2023-05-10T09:06:01.180Z,23.67
2023-05-10T09:08:28.223Z,23.74
2023-05-10T09:10:58.024Z,23.89
2023-05-10T09:13:25.412Z,23.98
2023-05-10T09:15:52.309Z,24.08
2023-05-10T09:18:19.364Z,24.23
2023-05-10T09:20:46.549Z,24.13
2023-05-10T09:23:13.389Z,23.79
2023-05-10T09:25:40.474Z,23.59
2023-05-10T09:28:08.837Z,23.45
2023-05-10T09:30:36.174Z,23.26
2023-05-10T09:33:03.416Z,23.12
2023-05-10T09:35:31.885Z,23.08
2023-05-10T09:38:01.458Z,22.86
2023-05-10T09:40:29.094Z,22.73
2023-05-10T09:43:07.492Z,22.73
2023-05-10T09:45:37.784Z,22.80
2023-05-10T09:48:06.430Z,22.81
2023-05-10T09:50:33.382Z,22.99
2023-05-10T09:53:01.804Z,23.21
2023-05-10T09:55:42.726Z,23.37
2023-05-10T09:59:37.205Z,22.30
2023-05-10T10:02:04.232Z,23.32
2023-05-10T10:04:31.359Z,23.48
2023-05-10T10:07:05.109Z,23.38
2023-05-10T10:09:32.547Z,23.19
2023-05-10T10:12:00.853Z,23.24
2023-05-10T10:14:27.679Z,23.37
2023-05-10T10:17:06.542Z,23.53
2023-05-10T10:19:35.461Z,23.75
2023-05-10T10:22:02.357Z,23.94
2023-05-10T10:24:29.532Z,24.05
2023-05-10T10:26:58.339Z,24.09
2023-05-10T10:29:42.858Z,23.73
2023-05-10T10:32:09.666Z,23.35
2023-05-10T10:34:36.767Z,23.35
2023-05-10T10:37:07.685Z,23.46
2023-05-10T10:39:37.749Z,23.50
2023-05-10T10:42:05.179Z,23.54
2023-05-10T10:44:34.582Z,23.63
2023-05-10T10:47:09.726Z,23.62
2023-05-10T10:49:42.838Z,23.56
2023-05-10T10:52:28.008Z,23.28
2023-05-10T10:54:58.130Z,22.93
2023-05-10T10:57:27.701Z,22.74
2023-05-10T11:00:26.035Z,22.74
2023-05-10T11:02:53.713Z,22.77
2023-05-10T11:05:47.797Z,22.90
2023-05-10T11:08:16.069Z,23.01
2023-05-10T11:11:15.737Z,22.91
2023-05-10T11:13:51.487Z,22.64
2023-05-10T11:16:25.661Z,22.52
2023-05-10T11:19:16.537Z,22.50
2023-05-10T11:22:16.422Z,22.49
2023-05-10T11:24:57.403Z,22.62
2023-05-10T11:27:24.264Z,22.79
2023-05-10T11:29:54.230Z,22.90
2023-05-10T11:32:20.997Z,23.01
2023-05-10T11:34:49.314Z,23.02
2023-05-10T11:37:16.192Z,22.93
2023-05-10T11:39:46.889Z,22.93
2023-05-10T11:42:13.937Z,23.09
2023-05-10T11:44:41.893Z,23.32
2023-05-10T11:47:09.145Z,23.52
2023-05-10T11:49:36.041Z,23.70
2023-05-10T11:52:07.797Z,23.81
2023-05-10T11:54:36.141Z,23.76
2023-05-10T11:57:03.038Z,23.78
2023-05-10T11:59:30.018Z,23.89
2023-05-10T12:01:56.825Z,24.01
2023-05-10T12:04:23.661Z,24.05
2023-05-10T12:06:50.753Z,24.06
2023-05-10T12:09:19.210Z,24.03
2023-05-10T12:11:50.102Z,23.97
2023-05-10T12:14:16.929Z,23.85
2023-05-10T12:16:44.457Z,23.79
2023-05-10T12:19:11.925Z,23.85
2023-05-10T12:21:40.171Z,23.91
2023-05-10T12:24:07.664Z,23.69
2023-05-10T12:26:35.868Z,23.45
2023-05-10T12:29:21.443Z,23.43
2023-05-10T12:31:53.717Z,23.40
2023-05-10T12:34:39.737Z,23.33
2023-05-10T12:37:06.755Z,23.45
2023-05-10T12:39:44.328Z,23.57
2023-05-10T12:42:11.430Z,23.72
2023-05-10T12:44:38.477Z,23.87
2023-05-10T12:47:05.536Z,24.01
2023-05-10T12:49:32.366Z,24.15
2023-05-10T12:51:59.221Z,24.22
2023-05-10T12:54:26.396Z,24.29
2023-05-10T12:56:53.696Z,24.28
2023-05-10T12:59:21.057Z,24.12
2023-05-10T13:01:48.102Z,24.01
2023-05-10T13:04:15.107Z,24.14
2023-05-10T13:06:42.189Z,24.33
2023-05-10T13:09:09.103Z,24.17
2023-05-10T13:11:36.319Z,23.80
2023-05-10T13:14:04.589Z,23.48
2023-05-10T13:16:31.898Z,23.27
2023-05-10T13:18:59.735Z,23.20
2023-05-10T13:21:26.961Z,23.15
2023-05-10T13:23:54.281Z,22.99
2023-05-10T13:26:21.449Z,22.99
2023-05-10T13:28:50.021Z,23.04
2023-05-10T13:31:16.963Z,22.91
2023-05-10T13:33:44.031Z,22.80
2023-05-10T13:36:11.091Z,22.83
2023-05-10T13:38:38.487Z,22.94
2023-05-10T13:41:05.733Z,22.91
2023-05-10T13:43:32.760Z,22.82
2023-05-10T13:45:59.833Z,22.71
2023-05-10T13:48:26.830Z,22.56
2023-05-10T13:50:53.749Z,22.42
2023-05-10T13:53:20.754Z,22.35
2023-05-10T13:55:48.357Z,22.35
2023-05-10T13:58:15.262Z,22.48
2023-05-10T14:00:42.070Z,22.59
2023-05-10T14:03:12.407Z,22.66
2023-05-10T14:05:39.787Z,22.69
2023-05-10T14:08:06.755Z,22.66
2023-05-10T14:10:33.689Z,22.53
2023-05-10T14:13:00.731Z,22.42
2023-05-10T14:15:27.553Z,22.39
2023-05-10T14:17:54.534Z,22.35
2023-05-10T14:20:21.567Z,22.20
2023-05-10T14:22:48.515Z,22.09
2023-05-10T14:25:15.911Z,22.07
2023-05-10T14:27:43.220Z,22.07
2023-05-10T14:30:11.279Z,22.08
2023-05-10T14:32:38.490Z,22.12
2023-05-10T14:35:07.254Z,22.24
2023-05-10T14:37:34.476Z,22.39
2023-05-10T14:40:01.742Z,22.48
2023-05-10T14:42:29.585Z,22.54
2023-05-10T14:44:56.460Z,22.58
2023-05-10T14:47:23.695Z,22.53
2023-05-10T14:49:50.666Z,22.51
2023-05-10T14:52:18.614Z,22.51
2023-05-10T14:54:45.569Z,22.53
2023-05-10T14:57:12.408Z,22.56
2023-05-10T14:59:39.358Z,22.57
2023-05-10T15:02:09.427Z,22.55
2023-05-10T15:04:36.980Z,22.52
2023-05-10T15:07:04.288Z,22.50
2023-05-10T15:09:31.458Z,22.50
2023-05-10T15:11:58.344Z,22.51
2023-05-10T15:14:25.367Z,22.55
2023-05-10T15:16:52.290Z,22.60
2023-05-10T15:19:19.210Z,22.63
2023-05-10T15:21:48.062Z,22.61
2023-05-10T15:24:15.948Z,22.58
2023-05-10T15:26:42.962Z,22.49
2023-05-10T15:29:09.948Z,22.29
2023-05-10T15:31:37.114Z,22.20
2023-05-10T15:34:04.217Z,22.12
2023-05-10T15:36:32.820Z,22.16
2023-05-10T15:38:59.730Z,22.25
2023-05-10T15:41:26.540Z,22.35
2023-05-10T15:43:54.540Z,22.44
2023-05-10T15:46:21.733Z,22.49
2023-05-10T15:48:48.733Z,22.52
2023-05-10T15:51:16.090Z,22.49
2023-05-10T15:53:53.100Z,22.45
2023-05-10T15:56:23.712Z,22.43
2023-05-10T15:58:50.574Z,22.40
2023-05-10T16:01:17.962Z,22.41
2023-05-10T16:03:44.897Z,22.46
2023-05-10T16:06:11.800Z,22.47
2023-05-10T16:08:38.759Z,22.48
2023-05-10T16:11:05.761Z,22.51
2023-05-10T16:13:32.614Z,22.53
2023-05-10T16:16:00.331Z,22.54
2023-05-10T16:18:27.661Z,22.54
2023-05-10T16:20:54.678Z,22.52
2023-05-10T16:23:22.006Z,22.44
2023-05-10T16:25:49.025Z,22.30
2023-05-10T16:28:15.992Z,22.25
2023-05-10T16:30:42.931Z,22.20
2023-05-10T16:33:09.997Z,22.13
2023-05-10T16:35:36.962Z,22.10
2023-05-10T16:38:04.267Z,22.06
2023-05-10T16:40:32.596Z,21.93
2023-05-10T16:42:59.418Z,21.81
2023-05-10T16:45:27.155Z,21.72
2023-05-10T16:47:54.144Z,21.66
2023-05-10T16:50:21.381Z,21.65
2023-05-10T16:52:48.279Z,21.64
2023-05-10T16:55:15.267Z,21.59
2023-05-10T16:57:42.351Z,21.54
2023-05-10T17:00:12.064Z,21.47
2023-05-10T17:02:39.583Z,21.41
2023-05-10T17:05:07.332Z,21.33
2023-05-10T17:07:34.707Z,21.28
2023-05-10T17:10:01.546Z,21.21
2023-05-10T17:12:28.477Z,21.12
2023-05-10T17:14:55.320Z,21.00
2023-05-10T17:17:24.064Z,20.84
2023-05-10T17:19:51.500Z,20.70
2023-05-10T17:22:18.443Z,20.59
2023-05-10T17:24:45.972Z,20.48
2023-05-10T17:27:12.793Z,20.41
2023-05-10T17:29:39.728Z,20.38
2023-05-10T17:32:09.332Z,20.35
2023-05-10T17:34:37.330Z,20.31
2023-05-10T17:37:04.297Z,20.25
2023-05-10T17:39:31.403Z,20.20
2023-05-10T17:41:58.320Z,20.13
2023-05-10T17:44:26.124Z,20.04
2023-05-10T17:46:53.106Z,19.98
2023-05-10T17:49:19.971Z,19.92
2023-05-10T17:51:49.763Z,19.86
2023-05-10T17:54:16.585Z,19.80
2023-05-10T17:56:43.690Z,19.76
2023-05-10T17:59:10.663Z,19.74
2023-05-10T18:01:37.626Z,19.73
2023-05-10T18:04:04.714Z,19.71
2023-05-10T18:06:32.506Z,19.66
2023-05-10T18:08:59.659Z,19.62
2023-05-10T18:11:26.885Z,19.60
2023-05-10T18:13:54.324Z,19.60
2023-05-10T18:16:21.641Z,19.59
2023-05-10T18:18:49.142Z,19.54
2023-05-10T18:21:17.959Z,19.44
2023-05-10T18:23:44.829Z,19.33
2023-05-10T18:26:12.124Z,19.24
2023-05-10T18:28:39.093Z,19.18
2023-05-10T18:31:05.983Z,19.14
2023-05-10T18:33:32.917Z,19.15
2023-05-10T18:36:00.935Z,19.18
2023-05-10T18:38:27.793Z,19.22
2023-05-10T18:40:54.737Z,19.23
2023-05-10T18:43:21.776Z,19.22
2023-05-10T18:45:48.867Z,19.20
2023-05-10T18:48:15.875Z,19.14
2023-05-10T18:50:42.797Z,19.09
2023-05-10T18:53:09.669Z,19.06
2023-05-10T18:55:36.539Z,19.05
2023-05-10T18:58:03.465Z,19.03
2023-05-10T19:00:30.692Z,19.03
2023-05-10T19:02:57.655Z,19.02
2023-05-10T19:05:30.337Z,19.00
2023-05-10T19:07:57.320Z,18.98
2023-05-10T19:10:24.343Z,18.97
2023-05-10T19:12:51.181Z,18.95
2023-05-10T19:15:20.120Z,18.91
2023-05-10T19:17:50.976Z,18.84
2023-05-10T19:20:18.506Z,18.79
2023-05-10T19:23:01.899Z,18.73
2023-05-10T19:25:35.307Z,18.66
2023-05-10T19:28:02.740Z,18.59
2023-05-10T19:30:32.099Z,18.53
2023-05-10T19:32:58.990Z,18.49
2023-05-10T19:35:25.954Z,18.46
2023-05-10T19:37:53.345Z,18.43
2023-05-10T19:40:20.163Z,18.39
2023-05-10T19:42:47.325Z,18.35
2023-05-10T19:45:15.925Z,18.31
2023-05-10T19:47:43.534Z,18.28
2023-05-10T19:50:12.634Z,18.24
2023-05-10T19:52:39.578Z,18.20
2023-05-10T19:55:07.368Z,18.14
2023-05-10T19:57:34.364Z,18.05
2023-05-10T20:00:01.427Z,17.96
2023-05-10T20:02:28.283Z,17.90
2023-05-10T20:04:55.249Z,17.85
2023-05-10T20:07:22.098Z,17.78
2023-05-10T20:09:49.145Z,17.73
2023-05-10T20:12:15.930Z,17.66
2023-05-10T20:14:42.771Z,17.58
2023-05-10T20:17:09.582Z,17.53
2023-05-10T20:19:36.476Z,17.49
2023-05-10T20:22:05.469Z,17.46
2023-05-10T20:24:32.467Z,17.40
2023-05-10T20:26:59.327Z,17.34
2023-05-10T20:29:26.606Z,17.26
2023-05-10T20:31:53.456Z,17.18
2023-05-10T20:34:20.997Z,17.11
2023-05-10T20:36:47.822Z,17.05
2023-05-10T20:39:15.221Z,16.98
2023-05-10T20:41:42.768Z,16.93
2023-05-10T20:44:09.686Z,16.90
2023-05-10T20:46:36.910Z,16.86
2023-05-10T20:49:04.880Z,16.84
2023-05-10T20:51:33.423Z,16.80
2023-05-10T20:54:02.689Z,16.74
2023-05-10T20:56:29.525Z,16.68
2023-05-10T20:58:56.587Z,16.60
2023-05-10T21:01:23.676Z,16.52
2023-05-10T21:03:50.571Z,16.44
2023-05-10T21:06:17.546Z,16.36
2023-05-10T21:08:44.409Z,16.30
2023-05-10T21:11:11.335Z,16.22
2023-05-10T21:13:38.130Z,16.13
2023-05-10T21:16:05.104Z,16.05
2023-05-10T21:18:32.066Z,15.99
2023-05-10T21:20:58.867Z,15.94
2023-05-10T21:23:25.687Z,15.89
2023-05-10T21:25:52.551Z,15.84
2023-05-10T21:28:19.355Z,15.81
2023-05-10T21:30:46.379Z,15.79
2023-05-10T21:33:13.792Z,15.77
2023-05-10T21:35:43.061Z,15.75
2023-05-10T21:38:10.156Z,15.71
2023-05-10T21:40:38.068Z,15.66
2023-05-10T21:43:04.903Z,15.61
2023-05-10T21:45:33.104Z,15.56
2023-05-10T21:48:00.421Z,15.49
2023-05-10T21:50:27.600Z,15.46
2023-05-10T21:52:55.709Z,15.44
2023-05-10T21:55:22.840Z,15.42
2023-05-10T21:57:50.265Z,15.40
2023-05-10T22:00:19.234Z,15.37
2023-05-10T22:02:46.977Z,15.34
2023-05-10T22:05:14.002Z,15.31
2023-05-10T22:07:40.920Z,15.27
2023-05-10T22:10:09.200Z,15.21
2023-05-10T22:12:36.163Z,15.15
2023-05-10T22:17:22.562Z,13.92
2023-05-10T22:19:49.374Z,14.83
2023-05-10T22:22:16.253Z,14.90
2023-05-10T22:24:43.141Z,14.88
2023-05-10T22:27:09.963Z,14.85
2023-05-10T22:29:37.397Z,14.84
2023-05-10T22:32:06.094Z,14.83
2023-05-10T22:34:33.500Z,14.83
2023-05-10T22:37:00.359Z,14.83
2023-05-10T22:39:27.474Z,14.83
2023-05-10T22:41:54.381Z,14.83
2023-05-10T22:44:21.163Z,14.82
2023-05-10T22:46:47.981Z,14.79
2023-05-10T22:49:14.952Z,14.75
2023-05-10T22:51:42.179Z,14.70
2023-05-10T22:54:09.012Z,14.64
2023-05-10T22:56:35.990Z,14.58
2023-05-10T22:59:02.796Z,14.53
2023-05-10T23:01:29.951Z,14.49
2023-05-10T23:03:56.810Z,14.44
2023-05-10T23:06:23.614Z,14.39
2023-05-10T23:08:50.404Z,14.34
2023-05-10T23:11:17.513Z,14.30
2023-05-10T23:13:44.766Z,14.25
2023-05-10T23:16:11.862Z,14.21
2023-05-10T23:18:39.713Z,14.17
2023-05-10T23:21:06.785Z,14.12
2023-05-10T23:23:34.675Z,14.07
2023-05-10T23:26:01.984Z,14.02
2023-05-10T23:28:28.827Z,14.00
2023-05-10T23:30:56.902Z,13.97
2023-05-10T23:33:24.401Z,13.94
2023-05-10T23:35:51.212Z,13.93
2023-05-10T23:38:18.017Z,13.91
2023-05-10T23:40:48.999Z,13.88
2023-05-10T23:43:17.807Z,13.86
2023-05-10T23:45:57.445Z,13.81
2023-05-10T23:48:24.444Z,13.79
2023-05-10T23:50:51.257Z,13.77
2023-05-10T23:53:18.167Z,13.77
2023-05-10T23:55:45.758Z,13.75
2023-05-10T23:58:12.655Z,13.75
